createdAt,value
2015-09-26T00:00:42.721Z,12.3
2015-09-26T00:01:42.676Z,12.3
2015-09-26T00:02:42.616Z,12.3
2015-09-26T00:03:42.572Z,12.3
2015-09-26T00:04:42.512Z,12.2
2015-09-26T00:05:42.469Z,12.3
2015-09-26T00:06:42.424Z,12.3
2015-09-26T00:07:42.364Z,12.3
2015-09-26T00:08:42.321Z,12.3
2015-09-26T00:09:42.260Z,12.2
2015-09-26T00:10:42.216Z,12.1
2015-09-26T00:11:42.157Z,12.1
2015-09-26T00:12:42.112Z,12.1
2015-09-26T00:13:42.068Z,12
2015-09-26T00:14:42.009Z,11.9
2015-09-26T00:15:41.980Z,11.9
2015-09-26T00:16:41.904Z,11.9
2015-09-26T00:17:41.876Z,11.9
2015-09-26T00:18:41.817Z,12
2015-09-26T00:19:41.756Z,11.9
2015-09-26T00:20:41.712Z,11.8
2015-09-26T00:21:41.653Z,11.9
2015-09-26T00:22:41.608Z,11.9
2015-09-26T00:23:41.548Z,11.9
2015-09-26T00:24:41.520Z,11.9
2015-09-26T00:25:41.445Z,11.9
2015-09-26T00:26:41.400Z,11.8
2015-09-26T00:27:41.356Z,11.8
2015-09-26T00:28:41.297Z,11.8
2015-09-26T00:29:41.253Z,11.8
2015-09-26T00:30:41.198Z,11.9
2015-09-26T00:31:41.153Z,11.9
2015-09-26T00:32:41.094Z,11.9
2015-09-26T00:33:41.034Z,11.9
2015-09-26T00:34:40.989Z,11.8
2015-09-26T00:35:40.931Z,11.7
2015-09-26T00:36:40.886Z,11.7
2015-09-26T00:37:40.841Z,11.7
2015-09-26T00:38:40.782Z,11.6
2015-09-26T00:39:40.750Z,11.6
2015-09-26T00:40:40.675Z,11.6
2015-09-26T00:41:40.631Z,11.5
2015-09-26T00:42:40.572Z,11.6
2015-09-26T00:43:40.528Z,11.6
2015-09-26T00:44:40.482Z,11.6
2015-09-26T00:45:40.424Z,11.6
2015-09-26T00:46:40.379Z,11.6
2015-09-26T00:47:40.319Z,11.6
2015-09-26T00:48:40.275Z,11.5
2015-09-26T00:49:40.216Z,11.5
2015-09-26T00:50:40.171Z,11.5
2015-09-26T00:51:40.127Z,11.5
2015-09-26T00:52:40.068Z,11.5
2015-09-26T00:53:40.023Z,11.5
2015-09-26T00:54:39.963Z,11.6
2015-09-26T00:55:39.919Z,11.6
2015-09-26T00:56:39.859Z,11.7
2015-09-26T00:57:39.815Z,11.7
2015-09-26T00:58:39.756Z,11.8
2015-09-26T00:59:39.712Z,11.8
2015-09-26T01:00:39.667Z,11.8
2015-09-26T01:01:39.607Z,11.8
2015-09-26T01:02:39.579Z,11.7
2015-09-26T01:03:39.503Z,11.6
2015-09-26T01:04:39.460Z,11.7
2015-09-26T01:05:39.400Z,11.7
2015-09-26T01:06:39.356Z,11.7
2015-09-26T01:07:39.311Z,11.7
2015-09-26T01:08:39.251Z,11.7
2015-09-26T01:09:39.207Z,11.7
2015-09-26T01:10:39.164Z,11.6
2015-09-26T01:11:39.103Z,11.6
2015-09-26T01:12:39.044Z,11.6
2015-09-26T01:13:38.999Z,11.6
2015-09-26T01:14:38.939Z,11.6
2015-09-26T01:15:38.895Z,11.5
2015-09-26T01:16:38.851Z,11.5
2015-09-26T01:17:38.792Z,11.5
2015-09-26T01:18:38.747Z,11.6
2015-09-26T01:19:38.688Z,11.6
2015-09-26T01:20:38.644Z,11.6
2015-09-26T01:21:38.600Z,11.6
2015-09-26T01:22:38.540Z,11.6
2015-09-26T01:23:38.495Z,11.5
2015-09-26T01:24:38.436Z,11.6
2015-09-26T01:25:38.391Z,11.5
2015-09-26T01:26:38.332Z,11.5
2015-09-26T01:27:38.288Z,11.5
2015-09-26T01:28:38.244Z,11.5
2015-09-26T01:29:38.184Z,11.5
2015-09-26T01:30:38.139Z,11.5
2015-09-26T01:31:38.080Z,11.4
2015-09-26T01:32:38.036Z,11.4
2015-09-26T01:33:37.977Z,11.4
2015-09-26T01:34:44.213Z,11.4
2015-09-26T01:35:37.888Z,11.4
2015-09-26T01:36:37.844Z,11.4
2015-09-26T01:37:37.783Z,11.3
2015-09-26T01:38:37.740Z,11.2
2015-09-26T01:39:37.679Z,11.2
2015-09-26T01:40:37.636Z,11.3
2015-09-26T01:41:37.591Z,11.3
2015-09-26T01:42:37.532Z,11.3
2015-09-26T01:43:37.488Z,11.3
2015-09-26T01:44:37.427Z,11.4
2015-09-26T01:45:37.384Z,11.4
2015-09-26T01:46:37.324Z,11.4
2015-09-26T01:47:37.280Z,11.3
2015-09-26T01:48:37.236Z,11.3
2015-09-26T01:49:37.174Z,11.3
2015-09-26T01:50:37.129Z,11.3
2015-09-26T01:51:37.068Z,11.2
2015-09-26T01:52:37.025Z,11.2
2015-09-26T01:53:36.966Z,11.2
2015-09-26T01:54:36.921Z,11.1
2015-09-26T01:55:36.861Z,11.1
2015-09-26T01:56:36.817Z,11.1
2015-09-26T01:57:36.773Z,11
2015-09-26T01:58:36.713Z,11
2015-09-26T01:59:36.653Z,11
2015-09-26T02:00:36.609Z,10.9
2015-09-26T02:01:36.565Z,11
2015-09-26T02:02:36.506Z,11
2015-09-26T02:03:36.461Z,11
2015-09-26T02:04:36.401Z,11.1
2015-09-26T02:05:36.357Z,11.1
2015-09-26T02:06:36.298Z,11.2
2015-09-26T02:07:36.253Z,11.1
2015-09-26T02:08:36.194Z,11.2
2015-09-26T02:09:36.150Z,11.1
2015-09-26T02:10:36.089Z,11.1
2015-09-26T02:11:36.045Z,11.1
2015-09-26T02:12:35.986Z,11.1
2015-09-26T02:13:35.942Z,11.1
2015-09-26T02:14:35.898Z,11.1
2015-09-26T02:15:35.854Z,11.1
2015-09-26T02:16:35.794Z,11.1
2015-09-26T02:17:35.734Z,11.1
2015-09-26T02:18:35.689Z,11
2015-09-26T02:19:35.630Z,11.1
2015-09-26T02:20:35.586Z,11.1
2015-09-26T02:21:35.525Z,11.1
2015-09-26T02:22:35.482Z,11.1
2015-09-26T02:23:35.422Z,11.1
2015-09-26T02:24:35.378Z,11.1
2015-09-26T02:25:35.318Z,11
2015-09-26T02:26:35.289Z,11.1
2015-09-26T02:27:35.225Z,11.1
2015-09-26T02:28:35.181Z,11.1
2015-09-26T02:29:35.122Z,11
2015-09-26T02:30:35.078Z,11
2015-09-26T02:31:35.017Z,11
2015-09-26T02:32:34.973Z,10.9
2015-09-26T02:33:34.914Z,11
2015-09-26T02:34:34.853Z,11
2015-09-26T02:35:34.810Z,11
2015-09-26T02:36:34.765Z,10.9
2015-09-26T02:37:34.721Z,10.9
2015-09-26T02:38:34.661Z,10.9
2015-09-26T02:39:34.602Z,10.9
2015-09-26T02:40:34.558Z,10.9
2015-09-26T02:41:34.498Z,10.9
2015-09-26T02:42:34.454Z,10.8
2015-09-26T02:43:34.394Z,10.9
2015-09-26T02:44:34.350Z,10.9
2015-09-26T02:45:34.306Z,10.9
2015-09-26T02:46:34.246Z,10.9
2015-09-26T02:47:34.202Z,10.9
2015-09-26T02:48:34.141Z,10.9
2015-09-26T02:49:34.098Z,10.8
2015-09-26T02:50:34.038Z,10.7
2015-09-26T02:51:33.991Z,10.7
2015-09-26T02:52:33.946Z,10.6
2015-09-26T02:53:33.887Z,10.5
2015-09-26T02:54:33.843Z,10.5
2015-09-26T02:55:33.783Z,10.5
2015-09-26T02:56:33.739Z,10.4
2015-09-26T02:57:33.679Z,10.5
2015-09-26T02:58:33.635Z,10.6
2015-09-26T02:59:33.576Z,10.5
2015-09-26T03:00:33.532Z,10.4
2015-09-26T03:01:33.471Z,10.4
2015-09-26T03:02:33.427Z,10.5
2015-09-26T03:03:33.368Z,10.5
2015-09-26T03:04:33.324Z,10.5
2015-09-26T03:05:33.264Z,10.5
2015-09-26T03:06:33.219Z,10.5
2015-09-26T03:07:33.160Z,10.5
2015-09-26T03:08:33.115Z,10.6
2015-09-26T03:09:33.055Z,10.5
2015-09-26T03:10:33.011Z,10.4
2015-09-26T03:11:32.967Z,10.3
2015-09-26T03:12:32.908Z,10.3
2015-09-26T03:13:32.848Z,10.2
2015-09-26T03:14:32.804Z,10.3
2015-09-26T03:15:32.759Z,10.4
2015-09-26T03:16:32.700Z,10.3
2015-09-26T03:17:32.656Z,10.3
2015-09-26T03:18:32.595Z,10.4
2015-09-26T03:19:32.537Z,10.4
2015-09-26T03:20:32.492Z,10.4
2015-09-26T03:21:32.447Z,10.4
2015-09-26T03:22:32.388Z,10.4
2015-09-26T03:23:32.328Z,10.4
2015-09-26T03:24:32.284Z,10.4
2015-09-26T03:25:32.225Z,10.4
2015-09-26T03:26:32.180Z,10.4
2015-09-26T03:27:32.119Z,10.4
2015-09-26T03:28:32.092Z,10.4
2015-09-26T03:29:32.017Z,10.4
2015-09-26T03:30:31.972Z,10.3
2015-09-26T03:31:31.913Z,10.3
2015-09-26T03:32:31.869Z,10.3
2015-09-26T03:33:31.808Z,10.3
2015-09-26T03:34:31.764Z,10.3
2015-09-26T03:35:31.721Z,10.3
2015-09-26T03:36:31.661Z,10.3
2015-09-26T03:37:31.616Z,10.3
2015-09-26T03:38:31.557Z,10.2
2015-09-26T03:39:31.512Z,10.2
2015-09-26T03:40:31.452Z,10.2
2015-09-26T03:41:31.408Z,10.1
2015-09-26T03:42:31.348Z,10
2015-09-26T03:43:31.304Z,10
2015-09-26T03:44:31.245Z,10.1
2015-09-26T03:45:31.201Z,10.1
2015-09-26T03:46:31.141Z,10.1
2015-09-26T03:47:31.081Z,10.1
2015-09-26T03:48:31.037Z,10.1
2015-09-26T03:49:30.993Z,10
2015-09-26T03:50:30.933Z,10
2015-09-26T03:51:30.889Z,10
2015-09-26T03:52:30.829Z,10.1
2015-09-26T03:53:30.785Z,10
2015-09-26T03:54:30.726Z,9.9
2015-09-26T03:55:30.665Z,9.9
2015-09-26T03:56:30.622Z,10
2015-09-26T03:57:30.562Z,10
2015-09-26T03:58:30.518Z,10
2015-09-26T03:59:30.455Z,10
2015-09-26T04:00:30.411Z,9.9
2015-09-26T04:01:30.351Z,9.9
2015-09-26T04:02:30.306Z,9.9
2015-09-26T04:03:30.247Z,9.9
2015-09-26T04:04:30.203Z,10
2015-09-26T04:05:30.143Z,10
2015-09-26T04:06:30.098Z,10
2015-09-26T04:07:30.055Z,10
2015-09-26T04:08:29.995Z,9.9
2015-09-26T04:09:29.950Z,9.9
2015-09-26T04:10:29.891Z,9.9
2015-09-26T04:11:29.831Z,9.8
2015-09-26T04:12:29.786Z,9.8
2015-09-26T04:13:29.728Z,9.8
2015-09-26T04:14:29.684Z,9.7
2015-09-26T04:15:29.639Z,9.7
2015-09-26T04:16:29.580Z,9.7
2015-09-26T04:17:29.520Z,9.6
2015-09-26T04:18:29.475Z,9.5
2015-09-26T04:19:29.416Z,9.5
2015-09-26T04:20:29.371Z,9.5
2015-09-26T04:21:29.327Z,9.6
2015-09-26T04:22:29.267Z,9.7
2015-09-26T04:23:29.208Z,9.6
2015-09-26T04:24:29.147Z,9.5
2015-09-26T04:25:29.104Z,9.6
2015-09-26T04:26:29.060Z,9.6
2015-09-26T04:27:29.000Z,9.6
2015-09-26T04:28:28.956Z,9.5
2015-09-26T04:29:28.896Z,9.4
2015-09-26T04:30:28.836Z,9.4
2015-09-26T04:31:28.792Z,9.3
2015-09-26T04:32:28.749Z,9.2
2015-09-26T04:33:28.688Z,9.3
2015-09-26T04:34:28.644Z,9.2
2015-09-26T04:35:28.585Z,9.2
2015-09-26T04:36:28.541Z,9.2
2015-09-26T04:37:28.480Z,9.3
2015-09-26T04:38:28.436Z,9.3
2015-09-26T04:39:28.377Z,9.4
2015-09-26T04:40:28.317Z,9.3
2015-09-26T04:41:28.273Z,9.3
2015-09-26T04:42:28.213Z,9.2
2015-09-26T04:43:28.169Z,9.3
2015-09-26T04:44:28.109Z,9.2
2015-09-26T04:45:28.065Z,9.2
2015-09-26T04:46:28.005Z,9.1
2015-09-26T04:47:27.961Z,9.2
2015-09-26T04:48:27.901Z,9.1
2015-09-26T04:49:27.857Z,9.1
2015-09-26T04:50:27.788Z,9
2015-09-26T04:51:27.733Z,9.1
2015-09-26T04:52:27.662Z,9.1
2015-09-26T04:53:27.591Z,9.1
2015-09-26T04:54:27.550Z,9.1
2015-09-26T04:55:27.470Z,9.1
2015-09-26T04:56:27.422Z,9.1
2015-09-26T04:57:27.359Z,9.1
2015-09-26T04:58:27.311Z,9.1
2015-09-26T04:59:27.248Z,9
2015-09-26T05:00:27.202Z,8.9
2015-09-26T05:01:27.155Z,8.9
2015-09-26T05:02:27.094Z,8.9
2015-09-26T05:03:27.033Z,8.9
2015-09-26T05:04:26.987Z,8.9
2015-09-26T05:05:26.924Z,8.9
2015-09-26T05:06:26.881Z,8.9
2015-09-26T05:07:26.820Z,8.9
2015-09-26T05:08:26.775Z,8.8
2015-09-26T05:09:26.715Z,8.8
2015-09-26T05:10:26.671Z,8.8
2015-09-26T05:11:26.610Z,8.8
2015-09-26T05:12:26.551Z,8.9
2015-09-26T05:13:26.507Z,8.9
2015-09-26T05:14:26.447Z,8.9
2015-09-26T05:15:26.403Z,8.9
2015-09-26T05:16:26.344Z,8.9
2015-09-26T05:17:26.299Z,8.8
2015-09-26T05:18:26.255Z,8.9
2015-09-26T05:19:26.196Z,8.7
2015-09-26T05:20:26.135Z,8.7
2015-09-26T05:21:26.091Z,8.7
2015-09-26T05:22:26.031Z,8.8
2015-09-26T05:23:25.971Z,8.7
2015-09-26T05:24:25.928Z,8.7
2015-09-26T05:25:25.867Z,8.7
2015-09-26T05:26:25.824Z,8.7
2015-09-26T05:27:25.764Z,8.7
2015-09-26T05:28:25.720Z,8.7
2015-09-26T05:29:25.660Z,8.8
2015-09-26T05:30:25.616Z,8.8
2015-09-26T05:31:25.556Z,8.8
2015-09-26T05:32:25.512Z,8.9
2015-09-26T05:33:25.452Z,8.9
2015-09-26T05:34:25.392Z,8.9
2015-09-26T05:35:25.348Z,8.9
2015-09-26T05:36:25.289Z,9
2015-09-26T05:37:25.244Z,9
2015-09-26T05:38:25.184Z,9
2015-09-26T05:39:25.140Z,9
2015-09-26T05:40:25.081Z,9.1
2015-09-26T05:41:25.036Z,9.1
2015-09-26T05:42:24.977Z,9.2
2015-09-26T05:43:24.933Z,9.1
2015-09-26T05:44:24.873Z,9.1
2015-09-26T05:45:24.814Z,9.1
2015-09-26T05:46:24.770Z,9.1
2015-09-26T05:47:24.709Z,9.1
2015-09-26T05:48:24.665Z,9
2015-09-26T05:49:24.605Z,9
2015-09-26T05:50:24.561Z,9
2015-09-26T05:51:24.502Z,9.1
2015-09-26T05:52:24.458Z,9.1
2015-09-26T05:53:24.397Z,9.2
2015-09-26T05:54:24.338Z,9.2
2015-09-26T05:55:24.294Z,9.2
2015-09-26T05:56:24.233Z,9.1
2015-09-26T05:57:24.189Z,9.2
2015-09-26T05:58:24.130Z,9.1
2015-09-26T05:59:24.086Z,9.1
2015-09-26T06:00:24.026Z,9.1
2015-09-26T06:01:23.966Z,9.1
2015-09-26T06:02:23.921Z,9.1
2015-09-26T06:03:23.862Z,9.2
2015-09-26T06:04:23.819Z,9.2
2015-09-26T06:05:23.759Z,9.2
2015-09-26T06:06:23.714Z,9.3
2015-09-26T06:07:23.652Z,9.2
2015-09-26T06:08:23.608Z,9.2
2015-09-26T06:09:23.548Z,9.2
2015-09-26T06:10:23.504Z,9.2
2015-09-26T06:11:23.444Z,9.2
2015-09-26T06:12:23.399Z,9.2
2015-09-26T06:13:23.340Z,9.2
2015-09-26T06:14:23.295Z,9.2
2015-09-26T06:15:23.235Z,9.3
2015-09-26T06:16:23.177Z,9.3
2015-09-26T06:17:23.132Z,9.3
2015-09-26T06:18:23.072Z,9.4
2015-09-26T06:19:23.028Z,9.4
2015-09-26T06:20:22.969Z,9.4
2015-09-26T06:21:22.924Z,9.5
2015-09-26T06:22:22.865Z,9.5
2015-09-26T06:23:22.820Z,9.4
2015-09-26T06:24:22.760Z,9.4
2015-09-26T06:25:22.717Z,9.4
2015-09-26T06:26:22.672Z,9.3
2015-09-26T06:27:22.612Z,9.2
2015-09-26T06:28:22.553Z,9.2
2015-09-26T06:29:22.493Z,9.2
2015-09-26T06:30:22.448Z,9.1
2015-09-26T06:31:22.420Z,9.1
2015-09-26T06:32:22.345Z,9.1
2015-09-26T06:33:22.285Z,9.1
2015-09-26T06:34:22.241Z,9
2015-09-26T06:35:22.182Z,9
2015-09-26T06:36:22.136Z,9.1
2015-09-26T06:37:22.092Z,9.2
2015-09-26T06:38:22.034Z,9.3
2015-09-26T06:39:21.973Z,9.3
2015-09-26T06:40:21.929Z,9.5
2015-09-26T06:41:21.886Z,9.5
2015-09-26T06:42:21.826Z,9.5
2015-09-26T06:43:21.766Z,9.5
2015-09-26T06:44:21.722Z,9.5
2015-09-26T06:45:21.662Z,9.5
2015-09-26T06:46:21.617Z,9.5
2015-09-26T06:47:21.558Z,9.6
2015-09-26T06:48:21.514Z,9.6
2015-09-26T06:49:21.453Z,9.7
2015-09-26T06:50:21.410Z,9.7
2015-09-26T06:51:21.366Z,9.6
2015-09-26T06:52:21.305Z,9.7
2015-09-26T06:53:21.246Z,9.7
2015-09-26T06:54:21.202Z,9.7
2015-09-26T06:55:21.141Z,9.8
2015-09-26T06:56:21.097Z,9.7
2015-09-26T06:57:21.038Z,9.8
2015-09-26T06:58:20.994Z,9.8
2015-09-26T06:59:20.935Z,9.8
2015-09-26T07:00:20.890Z,9.8
2015-09-26T07:01:20.830Z,9.9
2015-09-26T07:02:20.817Z,10
2015-09-26T07:03:20.726Z,10
2015-09-26T07:04:20.682Z,10
2015-09-26T07:05:20.638Z,10
2015-09-26T07:06:20.579Z,10.1
2015-09-26T07:07:20.534Z,10.1
2015-09-26T07:08:20.474Z,10.2
2015-09-26T07:09:20.415Z,10.3
2015-09-26T07:10:20.371Z,10.3
2015-09-26T07:11:20.310Z,10.3
2015-09-26T07:12:20.266Z,10.4
2015-09-26T07:13:20.207Z,10.4
2015-09-26T07:14:20.162Z,10.5
2015-09-26T07:15:20.100Z,10.5
2015-09-26T07:16:20.056Z,10.6
2015-09-26T07:17:19.996Z,10.7
2015-09-26T07:18:19.951Z,10.7
2015-09-26T07:19:19.892Z,10.8
2015-09-26T07:20:19.847Z,10.9
2015-09-26T07:21:19.788Z,11
2015-09-26T07:22:19.744Z,11.1
2015-09-26T07:23:19.684Z,11.2
2015-09-26T07:24:19.640Z,11.2
2015-09-26T07:25:19.581Z,11.2
2015-09-26T07:26:19.536Z,11.3
2015-09-26T07:27:19.476Z,11.4
2015-09-26T07:28:19.431Z,11.5
2015-09-26T07:29:19.373Z,11.6
2015-09-26T07:30:19.328Z,11.7
2015-09-26T07:31:19.269Z,11.7
2015-09-26T07:32:19.225Z,11.9
2015-09-26T07:33:19.180Z,12
2015-09-26T07:34:19.120Z,12
2015-09-26T07:35:19.076Z,12.1
2015-09-26T07:36:19.016Z,12.1
2015-09-26T07:37:18.956Z,12.2
2015-09-26T07:38:18.913Z,12.3
2015-09-26T07:39:18.869Z,12.4
2015-09-26T07:40:18.808Z,12.5
2015-09-26T07:41:18.764Z,12.5
2015-09-26T07:42:18.705Z,12.6
2015-09-26T07:43:18.661Z,12.7
2015-09-26T07:44:18.616Z,12.7
2015-09-26T07:45:18.557Z,12.8
2015-09-26T07:46:18.513Z,12.8
2015-09-26T07:47:18.453Z,12.9
2015-09-26T07:48:18.408Z,12.9
2015-09-26T07:49:18.349Z,13
2015-09-26T07:50:18.305Z,13
2015-09-26T07:51:18.260Z,13.1
2015-09-26T07:52:18.201Z,13.1
2015-09-26T07:53:18.157Z,13.2
2015-09-26T07:54:18.113Z,13.2
2015-09-26T07:55:18.053Z,13.2
2015-09-26T07:56:18.009Z,13.2
2015-09-26T07:57:17.950Z,13.2
2015-09-26T07:58:17.906Z,13.2
2015-09-26T07:59:17.845Z,13.2
2015-09-26T08:00:17.802Z,13.3
2015-09-26T08:01:17.742Z,13.3
2015-09-26T08:02:17.697Z,13.3
2015-09-26T08:03:17.653Z,13.4
2015-09-26T08:04:17.594Z,13.4
2015-09-26T08:05:17.550Z,13.4
2015-09-26T08:06:17.506Z,13.4
2015-09-26T08:07:17.450Z,13.5
2015-09-26T08:08:17.407Z,13.5
2015-09-26T08:09:17.346Z,13.6
2015-09-26T08:10:17.319Z,13.6
2015-09-26T08:11:17.243Z,13.7
2015-09-26T08:12:17.199Z,13.7
2015-09-26T08:13:17.138Z,13.7
2015-09-26T08:14:17.094Z,13.7
2015-09-26T08:15:17.036Z,13.7
2015-09-26T08:16:16.991Z,13.8
2015-09-26T08:17:16.932Z,13.7
2015-09-26T08:18:16.888Z,13.6
2015-09-26T08:19:16.844Z,13.6
2015-09-26T08:20:16.783Z,13.6
2015-09-26T08:21:16.739Z,13.6
2015-09-26T08:22:16.680Z,13.6
2015-09-26T08:23:16.636Z,13.7
2015-09-26T08:24:16.576Z,13.6
2015-09-26T08:25:16.532Z,13.6
2015-09-26T08:26:16.472Z,13.6
2015-09-26T08:27:16.410Z,13.6
2015-09-26T08:28:16.366Z,13.7
2015-09-26T08:29:16.322Z,13.7
2015-09-26T08:30:16.261Z,13.7
2015-09-26T08:31:16.218Z,13.8
2015-09-26T08:32:16.157Z,13.8
2015-09-26T08:33:16.113Z,13.9
2015-09-26T08:34:16.054Z,13.9
2015-09-26T08:35:16.009Z,14
2015-09-26T08:36:15.965Z,14
2015-09-26T08:37:15.905Z,14
2015-09-26T08:38:15.861Z,14
2015-09-26T08:39:15.801Z,14
2015-09-26T08:40:15.757Z,14
2015-09-26T08:41:15.698Z,14
2015-09-26T08:42:15.653Z,14.1
2015-09-26T08:43:15.594Z,14.1
2015-09-26T08:44:15.549Z,14.1
2015-09-26T08:45:15.506Z,14
2015-09-26T08:46:15.446Z,14
2015-09-26T08:47:15.401Z,14
2015-09-26T08:48:15.342Z,14.1
2015-09-26T08:49:15.313Z,14.1
2015-09-26T08:50:15.254Z,14.1
2015-09-26T08:51:15.193Z,14.1
2015-09-26T08:52:15.150Z,14.1
2015-09-26T08:53:15.090Z,14.1
2015-09-26T08:54:15.046Z,14.1
2015-09-26T08:55:15.001Z,14
2015-09-26T08:56:14.942Z,14.1
2015-09-26T08:57:14.898Z,14.1
2015-09-26T08:58:14.853Z,14.1
2015-09-26T08:59:14.816Z,14.2
2015-09-26T09:00:14.798Z,14.2
2015-09-26T09:01:14.691Z,14.3
2015-09-26T09:02:14.646Z,14.4
2015-09-26T09:03:14.587Z,14.4
2015-09-26T09:04:14.543Z,14.5
2015-09-26T09:05:14.498Z,14.5
2015-09-26T09:06:14.439Z,14.5
2015-09-26T09:07:14.395Z,14.5
2015-09-26T09:08:14.350Z,14.5
2015-09-26T09:09:14.290Z,14.5
2015-09-26T09:10:14.250Z,14.5
2015-09-26T09:11:14.192Z,14.4
2015-09-26T09:12:14.147Z,14.4
2015-09-26T09:13:14.087Z,14.4
2015-09-26T09:14:14.044Z,14.3
2015-09-26T09:15:14.000Z,14.3
2015-09-26T09:16:13.940Z,14.3
2015-09-26T09:17:13.895Z,14.2
2015-09-26T09:18:13.836Z,14.2
2015-09-26T09:19:13.792Z,14.3
2015-09-26T09:20:13.747Z,14.3
2015-09-26T09:21:13.688Z,14.4
2015-09-26T09:22:13.644Z,14.5
2015-09-26T09:23:13.584Z,14.6
2015-09-26T09:24:13.540Z,14.6
2015-09-26T09:25:13.495Z,14.5
2015-09-26T09:26:13.436Z,14.5
2015-09-26T09:27:13.389Z,14.5
2015-09-26T09:28:13.330Z,14.5
2015-09-26T09:29:13.285Z,14.5
2015-09-26T09:30:13.241Z,14.6
2015-09-26T09:31:13.180Z,14.6
2015-09-26T09:32:13.137Z,14.6
2015-09-26T09:33:13.078Z,14.6
2015-09-26T09:34:13.033Z,14.6
2015-09-26T09:35:12.988Z,14.6
2015-09-26T09:36:12.929Z,14.6
2015-09-26T09:37:12.885Z,14.7
2015-09-26T09:38:12.841Z,14.7
2015-09-26T09:39:12.781Z,14.9
2015-09-26T09:40:12.738Z,14.9
2015-09-26T09:41:12.677Z,15
2015-09-26T09:42:12.633Z,15
2015-09-26T09:43:12.589Z,15.1
2015-09-26T09:44:12.544Z,15.1
2015-09-26T09:45:12.485Z,15.2
2015-09-26T09:46:12.441Z,15.2
2015-09-26T09:47:12.382Z,15.3
2015-09-26T09:48:12.337Z,15.3
2015-09-26T09:49:12.277Z,15.2
2015-09-26T09:50:12.233Z,15.1
2015-09-26T09:51:12.188Z,15
2015-09-26T09:52:12.129Z,15
2015-09-26T09:53:12.085Z,15
2015-09-26T09:54:12.026Z,14.9
2015-09-26T09:55:11.985Z,14.9
2015-09-26T09:56:11.925Z,14.9
2015-09-26T09:57:11.881Z,14.9
2015-09-26T09:58:11.837Z,14.8
2015-09-26T09:59:11.777Z,14.9
2015-09-26T10:00:11.733Z,14.8
2015-09-26T10:01:11.689Z,14.9
2015-09-26T10:02:11.645Z,14.8
2015-09-26T10:03:11.569Z,14.8
2015-09-26T10:04:11.525Z,14.9
2015-09-26T10:05:11.481Z,15
2015-09-26T10:06:11.436Z,15
2015-09-26T10:07:11.377Z,15.1
2015-09-26T10:08:11.333Z,15.2
2015-09-26T10:09:11.273Z,15.3
2015-09-26T10:10:11.229Z,15.3
2015-09-26T10:11:11.185Z,15.4
2015-09-26T10:12:11.125Z,15.4
2015-09-26T10:13:11.081Z,15.4
2015-09-26T10:14:11.021Z,15.5
2015-09-26T10:15:10.977Z,15.6
2015-09-26T10:16:10.932Z,15.7
2015-09-26T10:17:10.874Z,15.6
2015-09-26T10:18:10.829Z,15.5
2015-09-26T10:19:10.769Z,15.4
2015-09-26T10:20:10.725Z,15.5
2015-09-26T10:21:10.682Z,15.4
2015-09-26T10:22:10.621Z,15.3
2015-09-26T10:23:10.577Z,15.2
2015-09-26T10:24:10.517Z,15.2
2015-09-26T10:25:10.473Z,15.3
2015-09-26T10:26:10.413Z,15.3
2015-09-26T10:27:10.368Z,15.4
2015-09-26T10:28:10.309Z,15.4
2015-09-26T10:29:10.265Z,15.4
2015-09-26T10:30:10.221Z,15.4
2015-09-26T10:31:10.161Z,15.4
2015-09-26T10:32:10.118Z,15.4
2015-09-26T10:33:10.073Z,15.3
2015-09-26T10:34:10.010Z,15.2
2015-09-26T10:35:09.967Z,15.2
2015-09-26T10:36:09.922Z,15.1
2015-09-26T10:37:09.862Z,15.2
2015-09-26T10:38:09.818Z,15.3
2015-09-26T10:39:09.759Z,15.4
2015-09-26T10:40:09.714Z,15.5
2015-09-26T10:41:09.670Z,15.5
2015-09-26T10:42:09.626Z,15.5
2015-09-26T10:43:09.566Z,15.5
2015-09-26T10:44:09.522Z,15.5
2015-09-26T10:45:09.478Z,15.5
2015-09-26T10:46:09.418Z,15.5
2015-09-26T10:47:09.374Z,15.5
2015-09-26T10:48:09.314Z,15.5
2015-09-26T10:49:09.269Z,15.6
2015-09-26T10:50:09.225Z,15.7
2015-09-26T10:51:09.166Z,15.7
2015-09-26T10:52:09.122Z,15.7
2015-09-26T10:53:09.078Z,15.6
2015-09-26T10:54:09.033Z,15.6
2015-09-26T10:55:08.974Z,15.5
2015-09-26T10:56:08.930Z,15.4
2015-09-26T10:57:08.869Z,15.4
2015-09-26T10:58:08.826Z,15.4
2015-09-26T10:59:08.766Z,15.3
2015-09-26T11:00:08.722Z,15.2
2015-09-26T11:01:08.678Z,15.2
2015-09-26T11:02:08.618Z,15.1
2015-09-26T11:03:08.574Z,15.1
2015-09-26T11:04:08.514Z,15.1
2015-09-26T11:05:08.469Z,15.3
2015-09-26T11:06:08.426Z,15.4
2015-09-26T11:07:08.366Z,15.5
2015-09-26T11:08:08.322Z,15.6
2015-09-26T11:09:08.262Z,15.7
2015-09-26T11:10:08.233Z,15.7
2015-09-26T11:11:08.173Z,15.8
2015-09-26T11:12:08.114Z,15.9
2015-09-26T11:13:08.070Z,15.9
2015-09-26T11:14:08.010Z,15.9
2015-09-26T11:15:07.965Z,16
2015-09-26T11:16:07.922Z,16.1
2015-09-26T11:17:07.862Z,16
2015-09-26T11:18:07.818Z,15.9
2015-09-26T11:19:07.774Z,15.9
2015-09-26T11:20:07.729Z,15.8
2015-09-26T11:21:07.670Z,15.8
2015-09-26T11:22:07.626Z,15.8
2015-09-26T11:23:07.565Z,15.7
2015-09-26T11:24:07.521Z,15.7
2015-09-26T11:25:07.478Z,15.6
2015-09-26T11:26:07.418Z,15.5
2015-09-26T11:27:07.358Z,15.5
2015-09-26T11:28:07.314Z,15.4
2015-09-26T11:29:07.270Z,15.4
2015-09-26T11:30:07.209Z,15.4
2015-09-26T11:31:07.166Z,15.4
2015-09-26T11:32:07.122Z,15.3
2015-09-26T11:33:07.062Z,15.4
2015-09-26T11:34:07.017Z,15.3
2015-09-26T11:35:06.973Z,15.3
2015-09-26T11:36:06.929Z,15.3
2015-09-26T11:37:06.870Z,15.3
2015-09-26T11:38:06.826Z,15.3
2015-09-26T11:39:06.764Z,15.3
2015-09-26T11:40:06.719Z,15.3
2015-09-26T11:41:06.675Z,15.3
2015-09-26T11:42:06.614Z,15.2
2015-09-26T11:43:06.570Z,15.3
2015-09-26T11:44:06.527Z,15.3
2015-09-26T11:45:06.483Z,15.3
2015-09-26T11:46:06.422Z,15.3
2015-09-26T11:47:06.378Z,15.3
2015-09-26T11:48:06.319Z,15.4
2015-09-26T11:49:06.274Z,15.5
2015-09-26T11:50:06.230Z,15.5
2015-09-26T11:51:06.186Z,15.6
2015-09-26T11:52:06.158Z,15.7
2015-09-26T11:53:06.083Z,15.7
2015-09-26T11:54:06.038Z,15.8
2015-09-26T11:55:05.978Z,15.8
2015-09-26T11:56:05.935Z,15.9
2015-09-26T11:57:05.874Z,16
2015-09-26T11:58:05.830Z,16.1
2015-09-26T11:59:05.785Z,16.1
2015-09-26T12:00:05.726Z,16.2
2015-09-26T12:01:05.683Z,16.3
2015-09-26T12:02:05.638Z,16.4
2015-09-26T12:03:05.579Z,16.4
2015-09-26T12:04:05.535Z,16.3
2015-09-26T12:05:05.475Z,16.2
2015-09-26T12:06:05.430Z,16.2
2015-09-26T12:07:05.386Z,16.2
2015-09-26T12:08:05.327Z,16.2
2015-09-26T12:09:05.282Z,16.2
2015-09-26T12:10:05.223Z,16.2
2015-09-26T12:11:05.179Z,16.2
2015-09-26T12:12:05.134Z,16.1
2015-09-26T12:13:05.075Z,16.1
2015-09-26T12:14:05.030Z,16
2015-09-26T12:15:04.971Z,16
2015-09-26T12:16:04.926Z,16
2015-09-26T12:17:04.882Z,16.1
2015-09-26T12:18:04.823Z,16.2
2015-09-26T12:19:04.779Z,16.3
2015-09-26T12:20:04.734Z,16.4
2015-09-26T12:21:04.674Z,16.3
2015-09-26T12:22:04.614Z,16.3
2015-09-26T12:23:04.571Z,16.3
2015-09-26T12:24:04.527Z,16.3
2015-09-26T12:25:04.467Z,16.5
2015-09-26T12:26:04.423Z,16.5
2015-09-26T12:27:04.362Z,16.5
2015-09-26T12:28:04.318Z,16.5
2015-09-26T12:29:04.259Z,16.5
2015-09-26T12:30:04.214Z,16.6
2015-09-26T12:31:04.170Z,16.7
2015-09-26T12:32:04.111Z,16.8
2015-09-26T12:33:04.066Z,16.8
2015-09-26T12:34:04.023Z,16.8
2015-09-26T12:35:03.962Z,16.8
2015-09-26T12:36:03.934Z,16.7
2015-09-26T12:37:03.874Z,16.6
2015-09-26T12:38:03.814Z,16.5
2015-09-26T12:39:03.770Z,16.3
2015-09-26T12:40:03.726Z,16.3
2015-09-26T12:41:03.667Z,16.2
2015-09-26T12:42:03.623Z,16.2
2015-09-26T12:43:03.578Z,16.1
2015-09-26T12:44:03.533Z,16.1
2015-09-26T12:45:03.471Z,16.1
2015-09-26T12:46:03.428Z,16
2015-09-26T12:47:03.367Z,16
2015-09-26T12:48:03.324Z,16
2015-09-26T12:49:03.280Z,15.9
2015-09-26T12:50:03.235Z,15.9
2015-09-26T12:51:03.175Z,15.9
2015-09-26T12:52:03.131Z,15.8
2015-09-26T12:53:03.071Z,15.8
2015-09-26T12:54:03.028Z,15.8
2015-09-26T12:55:02.983Z,15.7
2015-09-26T12:56:02.939Z,15.7
2015-09-26T12:57:02.879Z,15.7
2015-09-26T12:58:02.835Z,15.7
2015-09-26T12:59:02.775Z,15.7
2015-09-26T13:00:02.732Z,15.7
2015-09-26T13:01:02.687Z,15.6
2015-09-26T13:02:02.643Z,15.7
2015-09-26T13:03:02.583Z,15.7
2015-09-26T13:04:02.538Z,15.7
2015-09-26T13:05:02.495Z,15.7
2015-09-26T13:06:02.435Z,15.8
2015-09-26T13:07:02.391Z,15.7
2015-09-26T13:08:02.346Z,15.6
2015-09-26T13:09:02.287Z,15.7
2015-09-26T13:10:02.242Z,15.7
2015-09-26T13:11:02.199Z,15.6
2015-09-26T13:12:02.139Z,15.7
2015-09-26T13:13:02.110Z,15.7
2015-09-26T13:14:02.050Z,15.6
2015-09-26T13:15:01.990Z,15.6
2015-09-26T13:16:01.946Z,15.6
2015-09-26T13:17:01.903Z,15.6
2015-09-26T13:18:01.842Z,15.6
2015-09-26T13:19:01.798Z,15.7
2015-09-26T13:20:01.754Z,15.7
2015-09-26T13:21:01.695Z,15.6
2015-09-26T13:22:01.650Z,15.6
2015-09-26T13:23:01.606Z,15.6
2015-09-26T13:24:01.546Z,15.5
2015-09-26T13:25:01.503Z,15.5
2015-09-26T13:26:01.458Z,15.5
2015-09-26T13:27:01.414Z,15.5
2015-09-26T13:28:01.354Z,15.5
2015-09-26T13:29:01.310Z,15.4